sensor_id;sensor_type;location;lat;lon;timestamp;P1;durP1;ratioP1;P2;durP2;ratioP2
18136;SDS011;9194;42.632;23.298;2024-01-15T00:02:05;1.87;;;1.87;;
18136;SDS011;9194;42.632;23.298;2024-01-15T00:07:07;1.20;;;1.20;;
18136;SDS011;9194;42.632;23.298;2024-01-15T00:12:10;4.27;;;3.87;;
18136;SDS011;9194;42.632;23.298;2024-01-15T00:17:11;6.73;;;2.77;;
18136;SDS011;9194;42.632;23.298;2024-01-15T00:22:12;1.77;;;1.77;;
18136;SDS011;9194;42.632;23.298;2024-01-15T00:27:13;3.57;;;3.30;;
18136;SDS011;9194;42.632;23.298;2024-01-15T00:32:16;2.67;;;2.40;;
18136;SDS011;9194;42.632;23.298;2024-01-15T00:37:17;1.40;;;1.40;;
18136;SDS011;9194;42.632;23.298;2024-01-15T00:42:18;1.67;;;1.57;;
18136;SDS011;9194;42.632;23.298;2024-01-15T00:47:19;3.20;;;2.57;;
18136;SDS011;9194;42.632;23.298;2024-01-15T00:52:21;1.53;;;1.53;;
18136;SDS011;9194;42.632;23.298;2024-01-15T00:57:22;1.97;;;1.87;;
18136;SDS011;9194;42.632;23.298;2024-01-15T01:02:23;1.70;;;1.70;;
18136;SDS011;9194;42.632;23.298;2024-01-15T01:07:24;1.50;;;1.47;;
18136;SDS011;9194;42.632;23.298;2024-01-15T01:12:25;3.53;;;1.73;;
18136;SDS011;9194;42.632;23.298;2024-01-15T01:17:27;1.80;;;1.77;;
18136;SDS011;9194;42.632;23.298;2024-01-15T01:22:29;2.60;;;1.37;;
18136;SDS011;9194;42.632;23.298;2024-01-15T01:27:30;2.87;;;2.77;;
18136;SDS011;9194;42.632;23.298;2024-01-15T01:32:31;7.67;;;2.27;;
18136;SDS011;9194;42.632;23.298;2024-01-15T01:37:32;4.83;;;4.43;;
18136;SDS011;9194;42.632;23.298;2024-01-15T01:42:35;2.13;;;2.00;;
18136;SDS011;9194;42.632;23.298;2024-01-15T01:47:36;5.60;;;2.20;;
18136;SDS011;9194;42.632;23.298;2024-01-15T01:52:39;2.43;;;2.33;;
18136;SDS011;9194;42.632;23.298;2024-01-15T01:57:41;3.37;;;2.73;;
18136;SDS011;9194;42.632;23.298;2024-01-15T02:02:43;10.20;;;1.90;;
18136;SDS011;9194;42.632;23.298;2024-01-15T02:07:44;2.80;;;2.57;;
18136;SDS011;9194;42.632;23.298;2024-01-15T02:12:46;3.30;;;1.60;;
18136;SDS011;9194;42.632;23.298;2024-01-15T02:18:02;3.07;;;2.90;;
18136;SDS011;9194;42.632;23.298;2024-01-15T02:28:13;3.23;;;1.53;;
18136;SDS011;9194;42.632;23.298;2024-01-15T02:33:17;1.63;;;1.63;;
18136;SDS011;9194;42.632;23.298;2024-01-15T02:38:18;5.30;;;1.70;;
18136;SDS011;9194;42.632;23.298;2024-01-15T02:43:20;2.53;;;2.43;;
18136;SDS011;9194;42.632;23.298;2024-01-15T02:48:21;1.67;;;1.67;;
18136;SDS011;9194;42.632;23.298;2024-01-15T02:53:22;4.23;;;2.63;;
18136;SDS011;9194;42.632;23.298;2024-01-15T02:58:23;1.13;;;1.13;;
18136;SDS011;9194;42.632;23.298;2024-01-15T03:03:24;3.47;;;2.87;;
18136;SDS011;9194;42.632;23.298;2024-01-15T03:08:26;2.13;;;2.03;;
18136;SDS011;9194;42.632;23.298;2024-01-15T03:13:27;1.40;;;1.40;;
18136;SDS011;9194;42.632;23.298;2024-01-15T03:18:28;1.87;;;1.77;;
18136;SDS011;9194;42.632;23.298;2024-01-15T03:23:29;1.60;;;1.60;;
18136;SDS011;9194;42.632;23.298;2024-01-15T03:28:30;1.80;;;1.80;;
18136;SDS011;9194;42.632;23.298;2024-01-15T03:33:31;2.20;;;2.10;;
18136;SDS011;9194;42.632;23.298;2024-01-15T03:38:33;1.60;;;1.60;;
18136;SDS011;9194;42.632;23.298;2024-01-15T03:43:34;2.03;;;1.93;;
18136;SDS011;9194;42.632;23.298;2024-01-15T03:48:35;1.77;;;1.67;;
18136;SDS011;9194;42.632;23.298;2024-01-15T03:53:37;10.83;;;3.47;;
18136;SDS011;9194;42.632;23.298;2024-01-15T03:58:39;1.27;;;1.17;;
18136;SDS011;9194;42.632;23.298;2024-01-15T04:03:40;23.77;;;2.00;;
18136;SDS011;9194;42.632;23.298;2024-01-15T04:08:41;5.20;;;1.63;;
18136;SDS011;9194;42.632;23.298;2024-01-15T04:13:42;1.63;;;1.63;;
18136;SDS011;9194;42.632;23.298;2024-01-15T04:18:44;1.93;;;1.77;;
18136;SDS011;9194;42.632;23.298;2024-01-15T04:23:45;1.17;;;1.17;;
18136;SDS011;9194;42.632;23.298;2024-01-15T04:28:46;1.80;;;1.70;;
18136;SDS011;9194;42.632;23.298;2024-01-15T04:33:47;4.63;;;1.90;;
18136;SDS011;9194;42.632;23.298;2024-01-15T04:38:48;0.90;;;0.90;;
18136;SDS011;9194;42.632;23.298;2024-01-15T04:43:50;1.53;;;1.53;;
18136;SDS011;9194;42.632;23.298;2024-01-15T04:48:51;1.93;;;1.80;;
18136;SDS011;9194;42.632;23.298;2024-01-15T04:53:52;1.30;;;1.30;;
18136;SDS011;9194;42.632;23.298;2024-01-15T04:58:53;2.23;;;1.67;;
18136;SDS011;9194;42.632;23.298;2024-01-15T05:03:54;1.90;;;1.83;;
18136;SDS011;9194;42.632;23.298;2024-01-15T05:08:55;1.10;;;1.10;;
18136;SDS011;9194;42.632;23.298;2024-01-15T05:13:57;0.90;;;0.90;;
18136;SDS011;9194;42.632;23.298;2024-01-15T05:18:58;1.00;;;1.00;;
18136;SDS011;9194;42.632;23.298;2024-01-15T05:23:59;1.10;;;1.10;;
18136;SDS011;9194;42.632;23.298;2024-01-15T05:29:00;4.83;;;2.03;;
18136;SDS011;9194;42.632;23.298;2024-01-15T05:34:01;1.20;;;1.20;;
18136;SDS011;9194;42.632;23.298;2024-01-15T05:39:03;1.30;;;1.30;;
18136;SDS011;9194;42.632;23.298;2024-01-15T05:44:04;4.23;;;2.23;;
18136;SDS011;9194;42.632;23.298;2024-01-15T05:49:05;1.53;;;1.40;;
18136;SDS011;9194;42.632;23.298;2024-01-15T05:54:07;1.90;;;1.80;;
18136;SDS011;9194;42.632;23.298;2024-01-15T05:59:08;1.73;;;1.63;;
18136;SDS011;9194;42.632;23.298;2024-01-15T06:04:09;3.13;;;2.90;;
18136;SDS011;9194;42.632;23.298;2024-01-15T06:09:10;3.80;;;1.93;;
18136;SDS011;9194;42.632;23.298;2024-01-15T06:14:11;1.50;;;1.50;;
18136;SDS011;9194;42.632;23.298;2024-01-15T06:19:13;1.63;;;1.60;;
18136;SDS011;9194;42.632;23.298;2024-01-15T06:24:14;1.07;;;1.07;;
18136;SDS011;9194;42.632;23.298;2024-01-15T06:29:15;1.40;;;1.40;;
18136;SDS011;9194;42.632;23.298;2024-01-15T06:34:17;2.17;;;2.07;;
18136;SDS011;9194;42.632;23.298;2024-01-15T06:39:18;1.10;;;1.10;;
18136;SDS011;9194;42.632;23.298;2024-01-15T06:44:19;8.97;;;3.70;;
18136;SDS011;9194;42.632;23.298;2024-01-15T06:49:22;1.83;;;1.73;;
18136;SDS011;9194;42.632;23.298;2024-01-15T06:54:23;5.20;;;1.50;;
18136;SDS011;9194;42.632;23.298;2024-01-15T06:59:24;1.90;;;1.80;;
18136;SDS011;9194;42.632;23.298;2024-01-15T07:04:25;3.63;;;2.33;;
18136;SDS011;9194;42.632;23.298;2024-01-15T07:09:27;1.37;;;1.37;;
18136;SDS011;9194;42.632;23.298;2024-01-15T07:14:28;6.80;;;2.03;;
18136;SDS011;9194;42.632;23.298;2024-01-15T07:19:29;1.53;;;1.53;;
18136;SDS011;9194;42.632;23.298;2024-01-15T07:24:30;3.40;;;1.80;;
18136;SDS011;9194;42.632;23.298;2024-01-15T07:29:31;2.93;;;2.00;;
18136;SDS011;9194;42.632;23.298;2024-01-15T07:34:34;1.30;;;1.30;;
18136;SDS011;9194;42.632;23.298;2024-01-15T07:39:35;1.20;;;1.20;;
18136;SDS011;9194;42.632;23.298;2024-01-15T07:44:36;1.33;;;1.33;;
18136;SDS011;9194;42.632;23.298;2024-01-15T07:49:38;2.13;;;1.97;;
18136;SDS011;9194;42.632;23.298;2024-01-15T07:54:39;1.40;;;1.40;;
18136;SDS011;9194;42.632;23.298;2024-01-15T07:59:40;1.60;;;1.60;;
18136;SDS011;9194;42.632;23.298;2024-01-15T08:04:41;2.17;;;2.07;;
18136;SDS011;9194;42.632;23.298;2024-01-15T08:09:43;1.70;;;1.70;;
18136;SDS011;9194;42.632;23.298;2024-01-15T08:14:44;4.60;;;2.13;;
18136;SDS011;9194;42.632;23.298;2024-01-15T08:19:46;2.30;;;2.20;;
18136;SDS011;9194;42.632;23.298;2024-01-15T08:24:47;3.90;;;3.30;;
18136;SDS011;9194;42.632;23.298;2024-01-15T08:29:48;6.10;;;3.87;;
18136;SDS011;9194;42.632;23.298;2024-01-15T08:34:50;2.80;;;2.63;;
18136;SDS011;9194;42.632;23.298;2024-01-15T08:39:53;2.70;;;2.60;;
18136;SDS011;9194;42.632;23.298;2024-01-15T08:44:54;4.30;;;3.93;;
18136;SDS011;9194;42.632;23.298;2024-01-15T08:49:55;3.57;;;3.27;;
18136;SDS011;9194;42.632;23.298;2024-01-15T08:54:56;10.43;;;5.33;;
18136;SDS011;9194;42.632;23.298;2024-01-15T08:59:58;5.27;;;3.77;;
18136;SDS011;9194;42.632;23.298;2024-01-15T09:05:00;3.27;;;3.07;;
18136;SDS011;9194;42.632;23.298;2024-01-15T09:10:05;5.60;;;4.67;;
18136;SDS011;9194;42.632;23.298;2024-01-15T09:15:06;3.87;;;2.93;;
18136;SDS011;9194;42.632;23.298;2024-01-15T09:20:09;6.17;;;3.53;;
18136;SDS011;9194;42.632;23.298;2024-01-15T09:25:11;5.73;;;2.97;;
18136;SDS011;9194;42.632;23.298;2024-01-15T09:30:12;1.17;;;1.17;;
18136;SDS011;9194;42.632;23.298;2024-01-15T09:35:13;2.17;;;2.07;;
18136;SDS011;9194;42.632;23.298;2024-01-15T09:40:15;2.27;;;1.80;;
18136;SDS011;9194;42.632;23.298;2024-01-15T09:45:16;1.40;;;1.40;;
18136;SDS011;9194;42.632;23.298;2024-01-15T09:50:18;4.70;;;3.07;;
18136;SDS011;9194;42.632;23.298;2024-01-15T09:55:19;8.30;;;2.93;;
18136;SDS011;9194;42.632;23.298;2024-01-15T10:00:21;1.80;;;1.80;;
18136;SDS011;9194;42.632;23.298;2024-01-15T10:05:24;3.93;;;3.67;;
18136;SDS011;9194;42.632;23.298;2024-01-15T10:10:25;2.80;;;2.70;;
18136;SDS011;9194;42.632;23.298;2024-01-15T10:15:26;15.00;;;4.57;;
18136;SDS011;9194;42.632;23.298;2024-01-15T10:20:27;5.60;;;4.20;;
18136;SDS011;9194;42.632;23.298;2024-01-15T10:25:29;16.50;;;5.37;;
18136;SDS011;9194;42.632;23.298;2024-01-15T10:30:31;6.87;;;4.67;;
18136;SDS011;9194;42.632;23.298;2024-01-15T10:35:34;4.73;;;4.10;;
18136;SDS011;9194;42.632;23.298;2024-01-15T10:40:35;8.67;;;4.50;;
18136;SDS011;9194;42.632;23.298;2024-01-15T10:45:36;10.10;;;5.17;;
18136;SDS011;9194;42.632;23.298;2024-01-15T10:50:37;3.73;;;3.43;;
18136;SDS011;9194;42.632;23.298;2024-01-15T10:55:39;8.10;;;4.07;;
18136;SDS011;9194;42.632;23.298;2024-01-15T11:00:42;18.07;;;5.73;;
18136;SDS011;9194;42.632;23.298;2024-01-15T11:05:44;10.43;;;5.43;;
18136;SDS011;9194;42.632;23.298;2024-01-15T11:10:46;10.33;;;5.53;;
18136;SDS011;9194;42.632;23.298;2024-01-15T11:41:49;9.97;;;7.60;;
18136;SDS011;9194;42.632;23.298;2024-01-15T11:46:58;11.00;;;5.90;;
18136;SDS011;9194;42.632;23.298;2024-01-15T11:52:00;9.17;;;6.53;;
18136;SDS011;9194;42.632;23.298;2024-01-15T11:57:03;11.70;;;6.37;;
18136;SDS011;9194;42.632;23.298;2024-01-15T12:02:07;4.83;;;4.37;;
18136;SDS011;9194;42.632;23.298;2024-01-15T12:07:08;4.13;;;3.17;;
18136;SDS011;9194;42.632;23.298;2024-01-15T12:12:09;4.70;;;4.30;;
18136;SDS011;9194;42.632;23.298;2024-01-15T12:17:20;7.73;;;3.90;;
18136;SDS011;9194;42.632;23.298;2024-01-15T12:22:21;31.30;;;3.90;;
18136;SDS011;9194;42.632;23.298;2024-01-15T12:27:22;19.37;;;6.97;;
18136;SDS011;9194;42.632;23.298;2024-01-15T12:32:24;9.93;;;4.60;;
18136;SDS011;9194;42.632;23.298;2024-01-15T12:37:26;5.57;;;4.57;;
18136;SDS011;9194;42.632;23.298;2024-01-15T12:42:27;8.53;;;4.00;;
18136;SDS011;9194;42.632;23.298;2024-01-15T12:47:29;3.77;;;3.40;;
18136;SDS011;9194;42.632;23.298;2024-01-15T12:52:32;6.70;;;3.53;;
18136;SDS011;9194;42.632;23.298;2024-01-15T12:57:36;4.33;;;3.63;;
18136;SDS011;9194;42.632;23.298;2024-01-15T13:02:41;6.10;;;3.30;;
18136;SDS011;9194;42.632;23.298;2024-01-15T13:07:43;2.77;;;2.50;;
18136;SDS011;9194;42.632;23.298;2024-01-15T13:12:45;3.60;;;2.47;;
18136;SDS011;9194;42.632;23.298;2024-01-15T13:17:46;10.27;;;4.60;;
18136;SDS011;9194;42.632;23.298;2024-01-15T13:22:47;3.83;;;3.27;;
18136;SDS011;9194;42.632;23.298;2024-01-15T13:27:48;4.83;;;3.37;;
18136;SDS011;9194;42.632;23.298;2024-01-15T13:32:50;3.83;;;2.60;;
18136;SDS011;9194;42.632;23.298;2024-01-15T13:37:51;2.40;;;2.30;;
18136;SDS011;9194;42.632;23.298;2024-01-15T13:42:53;2.47;;;2.27;;
18136;SDS011;9194;42.632;23.298;2024-01-15T13:47:55;5.00;;;3.27;;
18136;SDS011;9194;42.632;23.298;2024-01-15T13:52:56;1.07;;;1.07;;
18136;SDS011;9194;42.632;23.298;2024-01-15T13:57:57;1.53;;;1.43;;
18136;SDS011;9194;42.632;23.298;2024-01-15T14:02:59;1.17;;;1.17;;
18136;SDS011;9194;42.632;23.298;2024-01-15T14:08:00;1.40;;;1.40;;
18136;SDS011;9194;42.632;23.298;2024-01-15T14:13:01;0.90;;;0.90;;
18136;SDS011;9194;42.632;23.298;2024-01-15T14:18:02;1.80;;;1.80;;
18136;SDS011;9194;42.632;23.298;2024-01-15T14:23:04;1.10;;;1.10;;
18136;SDS011;9194;42.632;23.298;2024-01-15T14:28:05;1.53;;;1.53;;
18136;SDS011;9194;42.632;23.298;2024-01-15T14:33:07;1.30;;;1.30;;
18136;SDS011;9194;42.632;23.298;2024-01-15T14:38:09;5.00;;;2.13;;
18136;SDS011;9194;42.632;23.298;2024-01-15T14:43:10;5.40;;;1.70;;
18136;SDS011;9194;42.632;23.298;2024-01-15T14:48:11;2.30;;;2.20;;
18136;SDS011;9194;42.632;23.298;2024-01-15T14:53:14;1.47;;;1.47;;
18136;SDS011;9194;42.632;23.298;2024-01-15T14:58:15;2.03;;;2.03;;
18136;SDS011;9194;42.632;23.298;2024-01-15T15:03:16;1.30;;;1.30;;
18136;SDS011;9194;42.632;23.298;2024-01-15T15:08:18;4.03;;;3.00;;
18136;SDS011;9194;42.632;23.298;2024-01-15T15:13:19;2.10;;;2.00;;
18136;SDS011;9194;42.632;23.298;2024-01-15T15:18:21;2.33;;;2.23;;
18136;SDS011;9194;42.632;23.298;2024-01-15T15:23:22;2.37;;;2.17;;
18136;SDS011;9194;42.632;23.298;2024-01-15T15:28:24;2.50;;;2.40;;
18136;SDS011;9194;42.632;23.298;2024-01-15T15:33:25;5.67;;;4.50;;
18136;SDS011;9194;42.632;23.298;2024-01-15T15:38:26;23.20;;;3.57;;
18136;SDS011;9194;42.632;23.298;2024-01-15T15:43:28;3.77;;;2.93;;
18136;SDS011;9194;42.632;23.298;2024-01-15T15:48:30;9.40;;;2.67;;
18136;SDS011;9194;42.632;23.298;2024-01-15T15:53:32;10.63;;;2.43;;
18136;SDS011;9194;42.632;23.298;2024-01-15T15:58:33;3.43;;;3.13;;
18136;SDS011;9194;42.632;23.298;2024-01-15T16:03:34;5.40;;;2.47;;
18136;SDS011;9194;42.632;23.298;2024-01-15T16:08:35;7.60;;;4.80;;
18136;SDS011;9194;42.632;23.298;2024-01-15T16:13:36;3.57;;;3.27;;
18136;SDS011;9194;42.632;23.298;2024-01-15T16:18:38;3.03;;;2.03;;
18136;SDS011;9194;42.632;23.298;2024-01-15T16:23:39;1.73;;;1.73;;
18136;SDS011;9194;42.632;23.298;2024-01-15T16:28:40;2.37;;;2.20;;
18136;SDS011;9194;42.632;23.298;2024-01-15T16:33:42;1.47;;;1.47;;
18136;SDS011;9194;42.632;23.298;2024-01-15T16:38:43;1.23;;;1.23;;
18136;SDS011;9194;42.632;23.298;2024-01-15T16:43:44;3.10;;;1.87;;
18136;SDS011;9194;42.632;23.298;2024-01-15T16:48:45;13.03;;;1.67;;
18136;SDS011;9194;42.632;23.298;2024-01-15T16:53:46;2.10;;;2.00;;
18136;SDS011;9194;42.632;23.298;2024-01-15T16:58:47;1.00;;;1.00;;
18136;SDS011;9194;42.632;23.298;2024-01-15T17:03:49;4.53;;;1.60;;
18136;SDS011;9194;42.632;23.298;2024-01-15T17:08:50;1.47;;;1.47;;
18136;SDS011;9194;42.632;23.298;2024-01-15T17:13:51;1.70;;;1.63;;
18136;SDS011;9194;42.632;23.298;2024-01-15T17:18:52;1.83;;;1.73;;
18136;SDS011;9194;42.632;23.298;2024-01-15T17:23:54;1.97;;;1.87;;
18136;SDS011;9194;42.632;23.298;2024-01-15T17:28:55;3.20;;;2.87;;
18136;SDS011;9194;42.632;23.298;2024-01-15T17:33:56;1.60;;;1.53;;
18136;SDS011;9194;42.632;23.298;2024-01-15T17:38:57;1.20;;;1.20;;
18136;SDS011;9194;42.632;23.298;2024-01-15T17:43:59;1.60;;;1.50;;
18136;SDS011;9194;42.632;23.298;2024-01-15T17:49:00;3.17;;;2.93;;
18136;SDS011;9194;42.632;23.298;2024-01-15T17:54:04;4.57;;;3.07;;
18136;SDS011;9194;42.632;23.298;2024-01-15T17:59:09;4.90;;;3.47;;
18136;SDS011;9194;42.632;23.298;2024-01-15T18:04:11;3.30;;;3.10;;
18136;SDS011;9194;42.632;23.298;2024-01-15T18:09:13;4.57;;;3.63;;
18136;SDS011;9194;42.632;23.298;2024-01-15T18:14:17;7.13;;;4.37;;
18136;SDS011;9194;42.632;23.298;2024-01-15T18:19:19;6.13;;;4.57;;
18136;SDS011;9194;42.632;23.298;2024-01-15T18:24:20;2.67;;;2.47;;
18136;SDS011;9194;42.632;23.298;2024-01-15T18:29:21;4.03;;;2.87;;
18136;SDS011;9194;42.632;23.298;2024-01-15T18:34:22;6.53;;;3.77;;
18136;SDS011;9194;42.632;23.298;2024-01-15T18:39:24;4.70;;;4.30;;
18136;SDS011;9194;42.632;23.298;2024-01-15T18:44:25;6.33;;;3.73;;
18136;SDS011;9194;42.632;23.298;2024-01-15T18:49:27;3.70;;;3.13;;
18136;SDS011;9194;42.632;23.298;2024-01-15T18:54:28;5.07;;;3.33;;
18136;SDS011;9194;42.632;23.298;2024-01-15T18:59:29;6.70;;;2.23;;
18136;SDS011;9194;42.632;23.298;2024-01-15T19:04:32;2.07;;;1.97;;
18136;SDS011;9194;42.632;23.298;2024-01-15T19:09:33;4.23;;;3.60;;
18136;SDS011;9194;42.632;23.298;2024-01-15T19:14:35;3.90;;;2.90;;
18136;SDS011;9194;42.632;23.298;2024-01-15T19:19:36;1.97;;;1.87;;
18136;SDS011;9194;42.632;23.298;2024-01-15T19:24:37;2.00;;;1.90;;
18136;SDS011;9194;42.632;23.298;2024-01-15T19:29:39;2.87;;;2.67;;
18136;SDS011;9194;42.632;23.298;2024-01-15T19:34:40;2.47;;;2.37;;
18136;SDS011;9194;42.632;23.298;2024-01-15T19:39:42;4.73;;;3.37;;
18136;SDS011;9194;42.632;23.298;2024-01-15T19:44:44;3.50;;;3.17;;
18136;SDS011;9194;42.632;23.298;2024-01-15T19:49:45;4.50;;;2.17;;
18136;SDS011;9194;42.632;23.298;2024-01-15T19:54:48;2.00;;;1.90;;
18136;SDS011;9194;42.632;23.298;2024-01-15T19:59:50;2.10;;;2.07;;
18136;SDS011;9194;42.632;23.298;2024-01-15T20:04:54;12.47;;;3.47;;
18136;SDS011;9194;42.632;23.298;2024-01-15T20:09:55;8.57;;;3.70;;
18136;SDS011;9194;42.632;23.298;2024-01-15T20:14:57;7.00;;;3.17;;
18136;SDS011;9194;42.632;23.298;2024-01-15T20:19:58;6.93;;;2.90;;
18136;SDS011;9194;42.632;23.298;2024-01-15T20:25:00;3.80;;;2.40;;
18136;SDS011;9194;42.632;23.298;2024-01-15T20:30:01;1.73;;;1.73;;
18136;SDS011;9194;42.632;23.298;2024-01-15T20:35:06;3.03;;;2.83;;
18136;SDS011;9194;42.632;23.298;2024-01-15T20:40:08;3.90;;;2.20;;
18136;SDS011;9194;42.632;23.298;2024-01-15T20:45:09;4.73;;;2.40;;
18136;SDS011;9194;42.632;23.298;2024-01-15T20:50:10;2.43;;;2.33;;
18136;SDS011;9194;42.632;23.298;2024-01-15T20:55:12;5.57;;;3.43;;
18136;SDS011;9194;42.632;23.298;2024-01-15T21:00:13;7.57;;;2.63;;
18136;SDS011;9194;42.632;23.298;2024-01-15T21:05:15;1.73;;;1.73;;
18136;SDS011;9194;42.632;23.298;2024-01-15T21:10:16;8.97;;;2.47;;
18136;SDS011;9194;42.632;23.298;2024-01-15T21:15:18;1.77;;;1.77;;
18136;SDS011;9194;42.632;23.298;2024-01-15T21:20:19;4.43;;;3.77;;
18136;SDS011;9194;42.632;23.298;2024-01-15T21:25:20;2.20;;;2.10;;
18136;SDS011;9194;42.632;23.298;2024-01-15T21:30:22;4.53;;;3.53;;
18136;SDS011;9194;42.632;23.298;2024-01-15T21:35:23;3.50;;;3.17;;
18136;SDS011;9194;42.632;23.298;2024-01-15T21:40:24;3.47;;;3.23;;
18136;SDS011;9194;42.632;23.298;2024-01-15T21:45:25;3.83;;;3.40;;
18136;SDS011;9194;42.632;23.298;2024-01-15T21:50:27;5.50;;;3.90;;
18136;SDS011;9194;42.632;23.298;2024-01-15T21:55:29;2.47;;;2.23;;
18136;SDS011;9194;42.632;23.298;2024-01-15T22:00:30;2.17;;;2.07;;
18136;SDS011;9194;42.632;23.298;2024-01-15T22:05:31;1.60;;;1.60;;
18136;SDS011;9194;42.632;23.298;2024-01-15T22:10:32;1.53;;;1.50;;
18136;SDS011;9194;42.632;23.298;2024-01-15T22:15:34;1.67;;;1.67;;
18136;SDS011;9194;42.632;23.298;2024-01-15T22:20:35;5.30;;;2.40;;
18136;SDS011;9194;42.632;23.298;2024-01-15T22:25:36;1.57;;;1.57;;
18136;SDS011;9194;42.632;23.298;2024-01-15T22:30:38;3.43;;;3.17;;
18136;SDS011;9194;42.632;23.298;2024-01-15T22:35:39;4.63;;;2.37;;
18136;SDS011;9194;42.632;23.298;2024-01-15T22:40:40;2.53;;;2.33;;
18136;SDS011;9194;42.632;23.298;2024-01-15T22:45:42;1.50;;;1.47;;
18136;SDS011;9194;42.632;23.298;2024-01-15T22:50:43;3.93;;;3.63;;
18136;SDS011;9194;42.632;23.298;2024-01-15T22:55:44;2.23;;;2.07;;
18136;SDS011;9194;42.632;23.298;2024-01-15T23:00:45;2.30;;;2.20;;
18136;SDS011;9194;42.632;23.298;2024-01-15T23:05:47;1.17;;;1.17;;
18136;SDS011;9194;42.632;23.298;2024-01-15T23:10:48;3.43;;;3.23;;
18136;SDS011;9194;42.632;23.298;2024-01-15T23:15:50;1.93;;;1.93;;
18136;SDS011;9194;42.632;23.298;2024-01-15T23:20:52;1.30;;;1.30;;
18136;SDS011;9194;42.632;23.298;2024-01-15T23:25:54;1.30;;;1.30;;
18136;SDS011;9194;42.632;23.298;2024-01-15T23:30:55;3.37;;;2.87;;
18136;SDS011;9194;42.632;23.298;2024-01-15T23:35:56;1.83;;;1.73;;
18136;SDS011;9194;42.632;23.298;2024-01-15T23:41:01;1.63;;;1.63;;
18136;SDS011;9194;42.632;23.298;2024-01-15T23:46:04;2.57;;;1.47;;
18136;SDS011;9194;42.632;23.298;2024-01-15T23:51:06;2.63;;;2.53;;
18136;SDS011;9194;42.632;23.298;2024-01-15T23:56:07;1.27;;;1.27;;
